Menu Close Menu
Station Historical Data
Daily Summary for December 1, 2017 Units:  Metric    English   Both
« Previous Day
Next Day »
Daily Weekly Monthly Yearly Custom
  High: Low: Average:
Temperature: 17.7 °C 9.6 °C 13.9 °C
Dew Point: 14.2 °C 8.5 °C 12 °C
Humidity: 94% 74% 88%
Wind Speed: 5.6km/h 0km/h 0.5km/h
Wind Gust: 5.6km/h - -
Wind- - South
Pressure: 1022.6 hPa 1019.5 hPa -
Precipitation: 0 mm    
Historical Graphs
 
 
Tabular Data for December 1, 2017
Time Temperature Dew Point Pressure Wind Wind Speed Wind Gust Humidity Rainfall Rate (Hourly) solar Conditions
00:00 15.2 °C 14.1 °C 1020.2 hPa Calm     93% 0 mm WeatherDisplay:10.37 W/m2 OVC
00:05 15.3 °C 14.1 °C 1020.2 hPa Calm     93% 0 mm WeatherDisplay:10.37 W/m2 OVC
00:10 15.3 °C 14.2 °C 1020.2 hPa Calm     93% 0 mm WeatherDisplay:10.37 W/m2 OVC
00:15 15.2 °C 14.1 °C 1020.2 hPa Calm     93% 0 mm WeatherDisplay:10.37 W/m2 OVC
00:20 15.2 °C 14.1 °C 1020.2 hPa Calm     93% 0 mm WeatherDisplay:10.37 W/m2 OVC
00:25 15.2 °C 14.1 °C 1020.2 hPa Calm     93% 0 mm WeatherDisplay:10.37 W/m2 OVC
00:30 15.2 °C 14.1 °C 1020.2 hPa Calm     93% 0 mm WeatherDisplay:10.37 W/m2 OVC
00:35 15.1 °C 14 °C 1020.2 hPa Calm     93% 0 mm WeatherDisplay:10.37 W/m2 OVC
00:45 15.1 °C 13.9 °C 1019.9 hPa Calm     93% 0 mm WeatherDisplay:10.37 W/m2 OVC
00:50 15 °C 13.9 °C 1019.9 hPa Calm     93% 0 mm WeatherDisplay:10.37 W/m2 OVC
00:56 15 °C 13.9 °C 1019.9 hPa Calm     93% 0 mm WeatherDisplay:10.37 W/m2 OVC
01:06 14.9 °C 13.8 °C 1019.9 hPa Calm     93% 0 mm WeatherDisplay:10.37 W/m2 OVC
01:16 14.9 °C 13.8 °C 1019.9 hPa Calm     93% 0 mm WeatherDisplay:10.37 W/m2 OVC
01:21 14.8 °C 13.7 °C 1019.9 hPa Calm     93% 0 mm WeatherDisplay:10.37 W/m2 OVC
01:26 15 °C 14.1 °C 1020.2 hPa Calm     94% 0 mm WeatherDisplay:10.37 W/m2 OVC
01:31 15 °C 14.1 °C 1020.2 hPa West 1.9 km/h 1.9 km/h 94% 0 mm WeatherDisplay:10.37 W/m2 OVC
01:36 15.1 °C 14.1 °C 1020.2 hPa West 1.9 km/h   94% 0 mm WeatherDisplay:10.37 W/m2 OVC
01:41 15 °C 13.9 °C 1020.2 hPa WNW 1.9 km/h   93% 0 mm WeatherDisplay:10.37 W/m2 OVC
01:47 14.9 °C 13.8 °C 1020.2 hPa SSW 3.7 km/h 3.7 km/h 93% 0 mm WeatherDisplay:10.37 W/m2 OVC
01:50 14.9 °C 13.8 °C 1020.2 hPa Calm   1.6 km/h 93% 0 mm WeatherDisplay:10.37 W/m2 OVC
01:55 14.9 °C 13.8 °C 1020.2 hPa Calm     93% 0 mm WeatherDisplay:10.37 W/m2 OVC
02:00 14.8 °C 13.7 °C 1020.2 hPa Calm     93% 0 mm WeatherDisplay:10.37 W/m2 OVC
02:05 14.8 °C 13.7 °C 1020.2 hPa Calm     93% 0 mm WeatherDisplay:10.37 W/m2 OVC
02:10 14.7 °C 13.6 °C 1020.2 hPa Calm     93% 0 mm WeatherDisplay:10.37 W/m2 OVC
02:15 14.6 °C 13.4 °C 1020.5 hPa Calm     93% 0 mm WeatherDisplay:10.37 W/m2 OVC
02:20 14.4 °C 13.3 °C 1020.2 hPa Calm     93% 0 mm WeatherDisplay:10.37 W/m2 OVC
02:25 14.3 °C 13.2 °C 1020.2 hPa Calm     93% 0 mm WeatherDisplay:10.37 W/m2 OVC
02:30 14.3 °C 13.2 °C 1020.2 hPa Calm     93% 0 mm WeatherDisplay:10.37 W/m2 OVC
02:35 14.2 °C 13.1 °C 1020.2 hPa Calm     93% 0 mm WeatherDisplay:10.37 W/m2 OVC
02:46 14.2 °C 13.1 °C 1020.2 hPa Calm     93% 0 mm WeatherDisplay:10.37 W/m2 OVC
02:51 14.3 °C 13.2 °C 1020.2 hPa Calm     93% 0 mm WeatherDisplay:10.37 W/m2 SCT
02:56 14.3 °C 13.2 °C 1020.2 hPa Calm     93% 0 mm WeatherDisplay:10.37 W/m2 SCT
03:01 14.3 °C 13.2 °C 1020.2 hPa Calm     93% 0 mm WeatherDisplay:10.37 W/m2 SCT
03:06 14.3 °C 13.2 °C 1020.2 hPa Calm     93% 0 mm WeatherDisplay:10.37 W/m2 SCT
03:11 14.3 °C 13.2 °C 1020.2 hPa Calm     93% 0 mm WeatherDisplay:10.37 W/m2 SCT
03:16 14.3 °C 13.2 °C 1020.2 hPa Calm     93% 0 mm WeatherDisplay:10.37 W/m2 SCT
03:21 14.4 °C 13.3 °C 1020.2 hPa Calm     93% 0 mm WeatherDisplay:10.37 W/m2 SCT
03:27 14.3 °C 13.2 °C 1020.2 hPa Calm     93% 0 mm WeatherDisplay:10.37 W/m2 SCT
03:32 14.3 °C 13.2 °C 1020.2 hPa Calm     93% 0 mm WeatherDisplay:10.37 W/m2 SCT
03:37 14.3 °C 13.2 °C 1020.2 hPa Calm     93% 0 mm WeatherDisplay:10.37 W/m2 SCT
03:42 14.2 °C 13.1 °C 1019.9 hPa Calm     93% 0 mm WeatherDisplay:10.37 W/m2 SCT
03:47 14.1 °C 12.9 °C 1019.9 hPa Calm     93% 0 mm WeatherDisplay:10.37 W/m2 SCT
03:52 13.9 °C 12.8 °C 1019.9 hPa Calm     93% 0 mm WeatherDisplay:10.37 W/m2 OVC
03:57 13.8 °C 12.7 °C 1019.9 hPa Calm     93% 0 mm WeatherDisplay:10.37 W/m2 OVC
04:08 13.7 °C 12.6 °C 1019.9 hPa Calm     93% 0 mm WeatherDisplay:10.37 W/m2 OVC
04:13 13.6 °C 12.5 °C 1019.9 hPa Calm     93% 0 mm WeatherDisplay:10.37 W/m2 OVC
04:18 13.5 °C 12.4 °C 1019.9 hPa Calm     93% 0 mm WeatherDisplay:10.37 W/m2 OVC
04:19 13.4 °C 12.3 °C 1019.9 hPa Calm     93% 0 mm WeatherDisplay:10.37 W/m2
04:22 13.4 °C 12.3 °C 1019.9 hPa Calm     93% 0 mm WeatherDisplay:10.37 W/m2 FEW
04:24 13.4 °C 12.3 °C 1019.9 hPa Calm     93% 0 mm WeatherDisplay:10.37 W/m2
04:27 13.4 °C 12.3 °C 1019.9 hPa Calm     93% 0 mm WeatherDisplay:10.37 W/m2 FEW
04:29 13.4 °C 12.3 °C 1019.9 hPa Calm     93% 0 mm WeatherDisplay:10.37 W/m2
04:33 13.3 °C 12.2 °C 1019.9 hPa Calm     93% 0 mm WeatherDisplay:10.37 W/m2 CLR
04:34 13.4 °C 12.3 °C 1019.9 hPa Calm     93% 0 mm WeatherDisplay:10.37 W/m2
04:38 13.3 °C 12.2 °C 1019.9 hPa Calm     93% 0 mm WeatherDisplay:10.37 W/m2 CLR
04:39 13.3 °C 12.2 °C 1019.9 hPa Calm     93% 0 mm WeatherDisplay:10.37 W/m2
04:43 13.3 °C 12.2 °C 1019.9 hPa Calm     93% 0 mm WeatherDisplay:10.37 W/m2 CLR
04:44 13.2 °C 12.1 °C 1019.9 hPa Calm     93% 0 mm WeatherDisplay:10.37 W/m2
04:49 13.1 °C 12 °C 1019.9 hPa Calm     93% 0 mm WeatherDisplay:10.37 W/m2
04:54 13.1 °C 11.9 °C 1019.9 hPa Calm     93% 0 mm WeatherDisplay:10.37 W/m2
04:58 12.9 °C 11.8 °C 1019.9 hPa Calm     93% 0 mm WeatherDisplay:10.37 W/m2 CLR
04:59 12.9 °C 11.8 °C 1019.9 hPa Calm     93% 0 mm WeatherDisplay:10.37 W/m2
05:03 12.8 °C 11.7 °C 1019.9 hPa Calm     93% 0 mm WeatherDisplay:10.37 W/m2 CLR
05:09 12.8 °C 11.7 °C 1019.5 hPa Calm     93% 0 mm WeatherDisplay:10.37 W/m2
05:13 12.8 °C 11.7 °C 1019.5 hPa Calm     93% 0 mm WeatherDisplay:10.37 W/m2 CLR
05:14 12.7 °C 11.6 °C 1019.5 hPa Calm     93% 0 mm WeatherDisplay:10.37 W/m2
05:18 12.8 °C 11.8 °C 1019.9 hPa Calm     94% 0 mm WeatherDisplay:10.37 W/m2 CLR
05:19 12.7 °C 11.6 °C 1019.9 hPa Calm     93% 0 mm WeatherDisplay:10.37 W/m2
05:24 12.7 °C 11.8 °C 1019.9 hPa Calm     94% 0 mm WeatherDisplay:10.37 W/m2
05:29 12.7 °C 11.7 °C 1019.9 hPa Calm     94% 0 mm WeatherDisplay:10.37 W/m2 CLR
05:34 12.7 °C 11.7 °C 1019.9 hPa Calm     94% 0 mm WeatherDisplay:10.37 W/m2
05:39 12.6 °C 11.7 °C 1019.9 hPa Calm     94% 0 mm WeatherDisplay:10.37 W/m2 CLR
05:44 12.4 °C 11.3 °C 1019.9 hPa Calm     93% 0 mm WeatherDisplay:10.37 W/m2 CLR
05:49 12.3 °C 11.2 °C 1019.9 hPa Calm     93% 0 mm WeatherDisplay:10.37 W/m2 CLR
05:54 12.2 °C 11.1 °C 1019.9 hPa Calm     93% 0 mm WeatherDisplay:10.37 W/m2 FEW
05:59 12.2 °C 11.3 °C 1019.9 hPa Calm     94% 0 mm WeatherDisplay:10.37 W/m2 FEW
06:04 12.3 °C 11.3 °C 1020.2 hPa Calm     94% 0 mm WeatherDisplay:10.37 W/m2 SCT
06:09 12.3 °C 11.4 °C 1020.2 hPa Calm     94% 0 mm WeatherDisplay:10.37 W/m2 SCT
06:14 12.5 °C 11.6 °C 1020.2 hPa Calm     94% 0 mm WeatherDisplay:10.37 W/m2 BKN
06:19 12.7 °C 11.7 °C 1020.2 hPa SSW 1.9 km/h   94% 0 mm WeatherDisplay:10.37 W/m2 BKN
06:24 12.8 °C 11.8 °C 1020.2 hPa SSW 1.9 km/h 1.9 km/h 94% 0 mm WeatherDisplay:10.37 W/m2 BKN
06:29 12.8 °C 11.9 °C 1020.2 hPa SW 1.9 km/h   94% 0 mm WeatherDisplay:10.37 W/m2 BKN
06:34 12.9 °C 11.9 °C 1020.2 hPa Calm   1.6 km/h 94% 0 mm WeatherDisplay:10.37 W/m2
06:35 12.9 °C 11.9 °C 1020.2 hPa WNW 1.9 km/h   94% 0 mm WeatherDisplay:10.37 W/m2 OVC
06:39 12.9 °C 11.9 °C 1020.5 hPa Calm     94% 0 mm WeatherDisplay:10.37 W/m2
06:40 12.9 °C 11.9 °C 1020.5 hPa Calm     94% 0 mm WeatherDisplay:10.37 W/m2 OVC
06:42 12.9 °C 11.9 °C 1020.5 hPa WSW 1.9 km/h   94% 0 mm WeatherDisplay:10.37 W/m2 OVC
06:44 12.9 °C 12 °C 1020.5 hPa Calm     94% 0 mm WeatherDisplay:10.37 W/m2
06:47 12.9 °C 12 °C 1020.5 hPa Calm     94% 0 mm WeatherDisplay:10.37 W/m2 OVC
06:49 12.9 °C 12 °C 1020.5 hPa Calm     94% 0 mm WeatherDisplay:10.37 W/m2
06:52 12.9 °C 12 °C 1020.9 hPa Calm     94% 0 mm WeatherDisplay:10.37 W/m2 OVC
06:57 13 °C 12.1 °C 1020.9 hPa West 1.9 km/h   94% 0 mm WeatherDisplay:10.37 W/m2 OVC
06:59 13 °C 12.1 °C 1020.9 hPa Calm   1.6 km/h 94% 0 mm WeatherDisplay:10.37 W/m2
07:02 13 °C 12.1 °C 1020.9 hPa West 1.9 km/h   94% 0 mm WeatherDisplay:10.37 W/m2 OVC
07:07 13 °C 12.1 °C 1020.9 hPa West 1.9 km/h 1.9 km/h 94% 0 mm WeatherDisplay:10.37 W/m2 OVC
07:09 13 °C 12.1 °C 1020.9 hPa Calm   1.6 km/h 94% 0 mm WeatherDisplay:10.37 W/m2
07:12 13 °C 12.1 °C 1020.9 hPa SE 1.9 km/h   94% 0 mm WeatherDisplay:10.37 W/m2 OVC
07:17 13 °C 12.1 °C 1021.2 hPa ESE 1.9 km/h   94% 0 mm WeatherDisplay:10.37 W/m2 OVC
07:19 13 °C 12.1 °C 1021.2 hPa Calm     94% 0 mm WeatherDisplay:10.37 W/m2
07:22 13 °C 12.1 °C 1021.2 hPa Calm     94% 0 mm WeatherDisplay:10.37 W/m2 OVC
07:28 13 °C 12.1 °C 1021.2 hPa Calm     94% 0 mm WeatherDisplay:10.37 W/m2 OVC
07:29 13 °C 12.1 °C 1021.2 hPa Calm     94% 0 mm WeatherDisplay:10.37 W/m2
07:33 13 °C 12.1 °C 1021.2 hPa Calm     94% 0 mm WeatherDisplay:10.37 W/m2 OVC
07:38 13 °C 12.1 °C 1021.2 hPa Calm     94% 0 mm WeatherDisplay:10.37 W/m2 OVC
07:39 13 °C 12.1 °C 1021.2 hPa Calm     94% 0 mm WeatherDisplay:10.37 W/m2
07:49 13 °C 12.1 °C 1021.2 hPa Calm     94% 0 mm WeatherDisplay:10.37 W/m2
07:53 13 °C 12.1 °C 1021.2 hPa Calm     94% 0 mm WeatherDisplay:10.37 W/m2 OVC
07:54 13 °C 12.1 °C 1021.6 hPa Calm     94% 0 mm WeatherDisplay:10.37 W/m2
07:58 13 °C 12.1 °C 1021.6 hPa Calm     94% 0 mm WeatherDisplay:10.37 W/m2 OVC
07:59 13.1 °C 12.1 °C 1021.6 hPa Calm     94% 0 mm WeatherDisplay:10.37 W/m2
08:03 13 °C 12.1 °C 1021.6 hPa Calm     94% 0 mm WeatherDisplay:10.37 W/m2 OVC
08:08 13 °C 12.1 °C 1021.6 hPa Calm     94% 0 mm WeatherDisplay:10.37 W/m2 OVC
08:09 13.1 °C 12.1 °C 1021.6 hPa Calm     94% 0 mm WeatherDisplay:10.37 W/m2
08:13 13.1 °C 12.1 °C 1021.6 hPa ESE 1.9 km/h   94% 0 mm WeatherDisplay:10.37 W/m2 OVC
08:14 13.1 °C 12.1 °C 1021.6 hPa Calm   1.6 km/h 94% 0 mm WeatherDisplay:10.37 W/m2
08:18 13.1 °C 12.1 °C 1021.6 hPa ESE 1.9 km/h   94% 0 mm WeatherDisplay:10.37 W/m2 OVC
08:19 13.1 °C 12.2 °C 1021.6 hPa Calm     94% 0 mm WeatherDisplay:10.37 W/m2
08:23 13.1 °C 12.2 °C 1021.6 hPa Calm     94% 0 mm WeatherDisplay:10.37 W/m2 OVC
08:24 13.1 °C 12.2 °C 1021.6 hPa Calm     94% 0 mm WeatherDisplay:10.37 W/m2
08:29 13.2 °C 12.2 °C 1021.9 hPa Calm     94% 0 mm WeatherDisplay:10.37 W/m2 OVC
08:34 13.2 °C 12.2 °C 1021.9 hPa SE 1.9 km/h   94% 0 mm WeatherDisplay:10.37 W/m2 OVC
08:39 13.2 °C 12.2 °C 1021.9 hPa SSE 1.9 km/h   94% 0 mm WeatherDisplay:10.37 W/m2 OVC
08:44 13.3 °C 12.3 °C 1021.9 hPa SSE 1.9 km/h   94% 0 mm WeatherDisplay:10.37 W/m2 OVC
08:49 13.3 °C 12.4 °C 1021.9 hPa Calm     94% 0 mm WeatherDisplay:10.37 W/m2 OVC
08:54 13.4 °C 12.4 °C 1021.9 hPa Calm     94% 0 mm WeatherDisplay:10.37 W/m2 OVC
08:59 13.4 °C 12.4 °C 1021.9 hPa Calm     94% 0 mm WeatherDisplay:10.37 W/m2 OVC
09:04 13.4 °C 12.5 °C 1021.9 hPa Calm     94% 0 mm WeatherDisplay:10.37 W/m2 OVC
09:09 13.4 °C 12.3 °C 1021.9 hPa Calm     93% 0 mm WeatherDisplay:10.37 W/m2 OVC
09:14 13.4 °C 12.3 °C 1021.9 hPa Calm     93% 0 mm WeatherDisplay:10.37 W/m2 OVC
09:19 13.5 °C 12.4 °C 1021.9 hPa Calm     93% 0 mm WeatherDisplay:10.37 W/m2 OVC
09:29 13.6 °C 12.4 °C 1021.9 hPa Calm     93% 0 mm WeatherDisplay:10.37 W/m2
09:30 13.6 °C 12.4 °C 1021.9 hPa Calm     93% 0 mm WeatherDisplay:10.37 W/m2 OVC
09:34 13.6 °C 12.4 °C 1021.9 hPa Calm     93% 0 mm WeatherDisplay:10.37 W/m2
09:35 13.6 °C 12.5 °C 1021.9 hPa Calm     93% 0 mm WeatherDisplay:10.37 W/m2 OVC
09:39 13.6 °C 12.5 °C 1021.9 hPa Calm   1.6 km/h 93% 0 mm WeatherDisplay:10.37 W/m2
09:40 13.6 °C 12.5 °C 1021.9 hPa Calm   1.6 km/h 93% 0 mm WeatherDisplay:10.37 W/m2 OVC
09:44 13.6 °C 12.3 °C 1021.9 hPa Calm   1.6 km/h 92% 0 mm WeatherDisplay:10.37 W/m2
09:45 13.6 °C 12.3 °C 1021.9 hPa WSW 1.9 km/h   92% 0 mm WeatherDisplay:10.37 W/m2 OVC
09:49 13.6 °C 12.3 °C 1021.9 hPa Calm     92% 0 mm WeatherDisplay:10.37 W/m2
09:54 13.7 °C 12.4 °C 1022.2 hPa Calm     92% 0 mm WeatherDisplay:10.37 W/m2
09:55 13.7 °C 12.4 °C 1022.2 hPa Calm     92% 0 mm WeatherDisplay:10.37 W/m2 OVC
09:59 13.8 °C 12.3 °C 1022.2 hPa Calm     91% 0 mm WeatherDisplay:10.37 W/m2
10:00 13.8 °C 12.3 °C 1022.2 hPa Calm     91% 0 mm WeatherDisplay:10.37 W/m2 OVC
10:04 13.8 °C 12.4 °C 1022.2 hPa Calm     91% 0 mm WeatherDisplay:10.37 W/m2
10:05 13.8 °C 12.4 °C 1022.2 hPa Calm     91% 0 mm WeatherDisplay:10.37 W/m2 OVC
10:09 13.9 °C 12.5 °C 1022.2 hPa Calm     91% 0 mm WeatherDisplay:10.37 W/m2
10:10 13.9 °C 12.5 °C 1022.2 hPa Calm     91% 0 mm WeatherDisplay:10.37 W/m2 OVC
10:14 14 °C 12.6 °C 1022.2 hPa Calm     91% 0 mm WeatherDisplay:10.37 W/m2
10:19 14.1 °C 12.6 °C 1022.2 hPa Calm     91% 0 mm WeatherDisplay:10.37 W/m2
10:24 14.1 °C 12.4 °C 1022.6 hPa Calm     90% 0 mm WeatherDisplay:10.37 W/m2
10:29 14.1 °C 12.5 °C 1022.2 hPa Calm     90% 0 mm WeatherDisplay:10.37 W/m2
10:31 14.1 °C 12.5 °C 1022.6 hPa Calm     90% 0 mm WeatherDisplay:10.37 W/m2 OVC
10:34 14.2 °C 12.6 °C 1022.6 hPa Calm     90% 0 mm WeatherDisplay:10.37 W/m2
10:36 14.2 °C 12.6 °C 1022.6 hPa Calm     90% 0 mm WeatherDisplay:10.37 W/m2 OVC
10:39 14.2 °C 12.6 °C 1022.2 hPa Calm     90% 0 mm WeatherDisplay:10.37 W/m2
10:41 14.3 °C 12.7 °C 1022.6 hPa Calm     90% 0 mm WeatherDisplay:10.37 W/m2 OVC
10:44 14.3 °C 12.6 °C 1022.2 hPa Calm     89% 0 mm WeatherDisplay:10.37 W/m2
10:49 14.4 °C 12.6 °C 1022.2 hPa Calm   1.6 km/h 89% 0 mm WeatherDisplay:10.37 W/m2
10:51 14.4 °C 12.6 °C 1022.2 hPa East 1.9 km/h 1.9 km/h 89% 0 mm WeatherDisplay:10.37 W/m2 OVC
10:54 14.4 °C 12.7 °C 1022.2 hPa Calm   1.6 km/h 89% 0 mm WeatherDisplay:10.37 W/m2
10:56 14.4 °C 12.7 °C 1022.2 hPa ESE 1.9 km/h 1.9 km/h 89% 0 mm WeatherDisplay:10.37 W/m2 OVC
10:59 14.5 °C 12.7 °C 1022.2 hPa Calm   1.6 km/h 89% 0 mm WeatherDisplay:10.37 W/m2
11:04 14.6 °C 12.8 °C 1022.2 hPa Calm   1.6 km/h 89% 0 mm WeatherDisplay:10.37 W/m2
11:06 14.6 °C 12.8 °C 1022.2 hPa SE 1.9 km/h   89% 0 mm WeatherDisplay:10.37 W/m2 OVC
11:09 14.6 °C 12.8 °C 1022.2 hPa Calm   1.6 km/h 89% 0 mm WeatherDisplay:10.37 W/m2
11:11 14.6 °C 12.7 °C 1022.2 hPa WSW 1.9 km/h   88% 0 mm WeatherDisplay:10.37 W/m2 OVC
11:14 14.6 °C 12.8 °C 1022.2 hPa Calm   1.6 km/h 89% 0 mm WeatherDisplay:10.37 W/m2
11:16 14.6 °C 12.8 °C 1022.2 hPa NW 1.9 km/h 1.9 km/h 89% 0 mm WeatherDisplay:10.37 W/m2 OVC
11:19 14.6 °C 12.8 °C 1022.2 hPa Calm   3.2 km/h 89% 0 mm WeatherDisplay:10.37 W/m2
11:21 14.6 °C 12.8 °C 1022.2 hPa WNW 3.7 km/h   89% 0 mm WeatherDisplay:10.37 W/m2 OVC
11:24 14.6 °C 12.8 °C 1022.2 hPa Calm   1.6 km/h 89% 0 mm WeatherDisplay:10.37 W/m2
11:26 14.6 °C 12.7 °C 1022.2 hPa NW 3.7 km/h   88% 0 mm WeatherDisplay:10.37 W/m2 OVC
11:29 14.6 °C 12.6 °C 1021.9 hPa Calm     88% 0 mm WeatherDisplay:10.37 W/m2
11:31 14.6 °C 12.6 °C 1021.9 hPa NNW 1.9 km/h 1.9 km/h 88% 0 mm WeatherDisplay:10.37 W/m2 OVC
11:34 14.6 °C 12.6 °C 1021.9 hPa SW 1.6 km/h 3.2 km/h 88% 0 mm WeatherDisplay:10.37 W/m2
11:37 14.6 °C 12.6 °C 1021.9 hPa WNW 3.7 km/h   88% 0 mm WeatherDisplay:10.37 W/m2 OVC
11:39 14.6 °C 12.7 °C 1021.9 hPa Calm     88% 0 mm WeatherDisplay:10.37 W/m2
11:42 14.6 °C 12.7 °C 1021.9 hPa South 3.7 km/h 3.7 km/h 88% 0 mm WeatherDisplay:10.37 W/m2 OVC
11:44 14.6 °C 12.7 °C 1021.9 hPa Calm   1.6 km/h 88% 0 mm WeatherDisplay:10.37 W/m2
11:47 14.7 °C 12.7 °C 1021.9 hPa SSE 1.9 km/h   88% 0 mm WeatherDisplay:10.37 W/m2 OVC
11:49 14.7 °C 12.7 °C 1021.9 hPa Calm   3.2 km/h 88% 0 mm WeatherDisplay:10.37 W/m2
11:52 14.7 °C 12.7 °C 1021.9 hPa South 3.7 km/h   88% 0 mm WeatherDisplay:10.37 W/m2 OVC
11:54 14.7 °C 12.7 °C 1021.9 hPa Calm     88% 0 mm WeatherDisplay:10.37 W/m2
11:57 14.7 °C 12.7 °C 1021.9 hPa SSW 3.7 km/h   88% 0 mm WeatherDisplay:10.37 W/m2 OVC
11:59 14.7 °C 12.8 °C 1021.9 hPa Calm   1.6 km/h 88% 0 mm WeatherDisplay:10.37 W/m2
12:02 14.7 °C 12.8 °C 1021.6 hPa SSE 1.9 km/h   88% 0 mm WeatherDisplay:10.37 W/m2 OVC
12:04 14.8 °C 12.8 °C 1021.9 hPa Calm   1.6 km/h 88% 0 mm WeatherDisplay:10.37 W/m2
12:09 14.8 °C 12.9 °C 1021.6 hPa Calm   1.6 km/h 88% 0 mm WeatherDisplay:10.37 W/m2
12:12 14.9 °C 12.9 °C 1021.6 hPa SW 1.9 km/h   88% 0 mm WeatherDisplay:10.37 W/m2 OVC
12:14 14.9 °C 12.7 °C 1021.6 hPa Calm   1.6 km/h 87% 0 mm WeatherDisplay:10.37 W/m2
12:17 14.9 °C 12.7 °C 1021.6 hPa WSW 1.9 km/h 1.9 km/h 87% 0 mm WeatherDisplay:10.37 W/m2 OVC
12:19 14.9 °C 12.8 °C 1021.6 hPa Calm   1.6 km/h 87% 0 mm WeatherDisplay:10.37 W/m2
12:22 15 °C 12.8 °C 1021.6 hPa North 1.9 km/h   87% 0 mm WeatherDisplay:10.37 W/m2 OVC
12:24 15 °C 12.8 °C 1021.6 hPa Calm   1.6 km/h 87% 0 mm WeatherDisplay:10.37 W/m2
12:29 15.1 °C 12.9 °C 1021.6 hPa Calm   3.2 km/h 87% 0 mm WeatherDisplay:10.37 W/m2
12:30 15.1 °C 12.9 °C 1021.6 hPa SE 3.7 km/h   87% 0 mm WeatherDisplay:10.37 W/m2 OVC
12:34 15.1 °C 12.7 °C 1021.2 hPa Calm   1.6 km/h 86% 0 mm WeatherDisplay:10.37 W/m2
12:35 15.1 °C 12.7 °C 1021.2 hPa South 3.7 km/h   86% 0 mm WeatherDisplay:10.37 W/m2 OVC
12:39 15.2 °C 12.8 °C 1021.2 hPa Calm   4.8 km/h 86% 0 mm WeatherDisplay:10.37 W/m2
12:40 15.2 °C 12.8 °C 1021.6 hPa SE 5.6 km/h 5.6 km/h 86% 0 mm WeatherDisplay:10.37 W/m2 OVC
12:44 15.2 °C 12.9 °C 1021.2 hPa Calm   1.6 km/h 86% 0 mm WeatherDisplay:10.37 W/m2
12:45 15.3 °C 12.9 °C 1021.2 hPa SSW 5.6 km/h   86% 0 mm WeatherDisplay:10.37 W/m2 OVC
12:49 15.4 °C 12.9 °C 1021.2 hPa Calm   1.6 km/h 85% 0 mm WeatherDisplay:10.37 W/m2
12:50 15.4 °C 13.1 °C 1021.2 hPa WSW 5.6 km/h 5.6 km/h 86% 0 mm WeatherDisplay:10.37 W/m2 OVC
12:54 15.4 °C 12.8 °C 1021.2 hPa Calm   1.6 km/h 84% 0 mm WeatherDisplay:10.37 W/m2
12:59 15.5 °C 12.8 °C 1021.2 hPa Calm     84% 0 mm WeatherDisplay:10.37 W/m2
13:00 15.5 °C 12.8 °C 1021.2 hPa NNE 1.9 km/h   84% 0 mm WeatherDisplay:10.37 W/m2 OVC
13:04 15.7 °C 13.2 °C 1021.2 hPa Calm     85% 0 mm WeatherDisplay:10.37 W/m2
13:09 15.7 °C 13 °C 1021.2 hPa Calm   1.6 km/h 84% 0 mm WeatherDisplay:10.37 W/m2
13:10 15.7 °C 13 °C 1021.2 hPa ENE 1.9 km/h   84% 0 mm WeatherDisplay:10.37 W/m2 OVC
13:14 15.8 °C 13.1 °C 1021.2 hPa Calm   1.6 km/h 84% 0 mm WeatherDisplay:10.37 W/m2
13:15 15.8 °C 13.1 °C 1021.2 hPa ESE 1.9 km/h   84% 0 mm WeatherDisplay:10.37 W/m2 OVC
13:19 15.8 °C 12.8 °C 1021.2 hPa Calm   1.6 km/h 82% 0 mm WeatherDisplay:10.37 W/m2
13:21 15.8 °C 12.9 °C 1021.2 hPa West 1.9 km/h 1.9 km/h 83% 0 mm WeatherDisplay:10.37 W/m2 OVC
13:24 15.8 °C 12.7 °C 1021.2 hPa ESE 1.6 km/h 1.6 km/h 82% 0 mm WeatherDisplay:10.37 W/m2
13:26 15.8 °C 12.7 °C 1021.2 hPa ENE 1.9 km/h 1.9 km/h 82% 0 mm WeatherDisplay:10.37 W/m2 OVC
13:29 15.7 °C 12.8 °C 1021.2 hPa Calm   1.6 km/h 83% 0 mm WeatherDisplay:10.37 W/m2
13:31 15.7 °C 12.8 °C 1020.9 hPa NNE 1.9 km/h   83% 0 mm WeatherDisplay:10.37 W/m2 OVC
13:34 15.8 °C 12.9 °C 1021.2 hPa Calm   1.6 km/h 83% 0 mm WeatherDisplay:10.37 W/m2
13:36 15.8 °C 12.7 °C 1021.2 hPa NNW 3.7 km/h 3.7 km/h 82% 0 mm WeatherDisplay:10.37 W/m2 OVC
13:39 15.8 °C 12.7 °C 1020.9 hPa Calm   3.2 km/h 82% 0 mm WeatherDisplay:10.37 W/m2
13:41 15.8 °C 12.9 °C 1020.9 hPa SE 3.7 km/h 3.7 km/h 83% 0 mm WeatherDisplay:10.37 W/m2 OVC
13:44 15.8 °C 12.8 °C 1020.9 hPa Calm   1.6 km/h 82% 0 mm WeatherDisplay:10.37 W/m2
13:46 15.9 °C 12.8 °C 1020.9 hPa ESE 3.7 km/h   82% 0 mm WeatherDisplay:10.37 W/m2 OVC
13:49 16.1 °C 13 °C 1020.9 hPa Calm   3.2 km/h 82% 0 mm WeatherDisplay:10.37 W/m2
13:52 16.1 °C 13.1 °C 1020.9 hPa ESE 3.7 km/h 3.7 km/h 82% 0 mm WeatherDisplay:10.37 W/m2 OVC
13:54 16.2 °C 12.9 °C 1020.9 hPa Calm   3.2 km/h 81% 0 mm WeatherDisplay:10.37 W/m2
13:59 16.3 °C 12.8 °C 1020.9 hPa ESE 1.6 km/h 1.6 km/h 80% 0 mm WeatherDisplay:10.37 W/m2
14:02 16.3 °C 12.8 °C 1020.9 hPa SE 3.7 km/h 3.7 km/h 80% 0 mm WeatherDisplay:10.37 W/m2 CLR
14:04 16.2 °C 12.9 °C 1020.9 hPa Calm   3.2 km/h 81% 0 mm WeatherDisplay:10.37 W/m2
14:09 16.2 °C 12.9 °C 1020.5 hPa Calm   1.6 km/h 81% 0 mm WeatherDisplay:10.37 W/m2
14:12 16.3 °C 13 °C 1020.9 hPa SW 3.7 km/h 3.7 km/h 81% 0 mm WeatherDisplay:10.37 W/m2 BKN
14:14 16.4 °C 12.9 °C 1020.9 hPa Calm   1.6 km/h 80% 0 mm WeatherDisplay:10.37 W/m2
14:19 16.5 °C 13.1 °C 1020.5 hPa Calm   1.6 km/h 80% 0 mm WeatherDisplay:10.37 W/m2
14:22 16.6 °C 12.9 °C 1020.5 hPa North 1.9 km/h   79% 0 mm WeatherDisplay:10.37 W/m2 SCT
14:24 16.6 °C 12.9 °C 1020.5 hPa Calm   1.6 km/h 79% 0 mm WeatherDisplay:10.37 W/m2
14:27 16.7 °C 12.8 °C 1020.5 hPa NNE 1.9 km/h 1.9 km/h 78% 0 mm WeatherDisplay:10.37 W/m2 SCT
14:29 16.7 °C 13 °C 1020.5 hPa Calm   3.2 km/h 79% 0 mm WeatherDisplay:10.37 W/m2
14:33 16.7 °C 12.8 °C 1020.5 hPa North 3.7 km/h 3.7 km/h 78% 0 mm WeatherDisplay:10.37 W/m2 SCT
14:34 16.7 °C 12.9 °C 1020.5 hPa Calm   3.2 km/h 78% 0 mm WeatherDisplay:10.37 W/m2
14:38 16.8 °C 12.9 °C 1020.5 hPa East 3.7 km/h   78% 0 mm WeatherDisplay:10.37 W/m2 SCT
14:39 16.8 °C 13 °C 1020.5 hPa Calm   1.6 km/h 78% 0 mm WeatherDisplay:10.37 W/m2
14:43 17 °C 13.3 °C 1020.5 hPa East 3.7 km/h   79% 0 mm WeatherDisplay:10.37 W/m2 SCT
14:44 17.2 °C 13.3 °C 1020.5 hPa Calm     78% 0 mm WeatherDisplay:10.37 W/m2
14:48 17.3 °C 13.3 °C 1020.5 hPa East 1.9 km/h   77% 0 mm WeatherDisplay:10.37 W/m2 SCT
14:49 17.4 °C 13.6 °C 1020.5 hPa Calm     78% 0 mm WeatherDisplay:10.37 W/m2
14:54 17.7 °C 13.2 °C 1020.5 hPa East 1.6 km/h 3.2 km/h 75% 0 mm WeatherDisplay:10.37 W/m2
14:58 17.7 °C 13.2 °C 1020.5 hPa WSW 3.7 km/h   75% 0 mm WeatherDisplay:10.37 W/m2 SCT
14:59 17.7 °C 13 °C 1020.5 hPa Calm   3.2 km/h 74% 0 mm WeatherDisplay:10.37 W/m2
15:03 17.7 °C 13.2 °C 1020.5 hPa South 3.7 km/h   75% 0 mm WeatherDisplay:10.37 W/m2 SCT
15:04 17.7 °C 13.2 °C 1020.5 hPa SSE 1.6 km/h 1.6 km/h 75% 0 mm WeatherDisplay:10.37 W/m2
15:08 17.7 °C 13.2 °C 1020.5 hPa SE 1.9 km/h 1.9 km/h 75% 0 mm WeatherDisplay:10.37 W/m2 SCT
15:09 17.7 °C 13.2 °C 1020.5 hPa Calm   1.6 km/h 75% 0 mm WeatherDisplay:10.37 W/m2
15:13 17.6 °C 13.3 °C 1020.2 hPa SE 1.9 km/h   76% 0 mm WeatherDisplay:10.37 W/m2 SCT
15:14 17.7 °C 13.2 °C 1020.5 hPa Calm     75% 0 mm WeatherDisplay:10.37 W/m2
15:18 17.6 °C 13.1 °C 1020.2 hPa SE 1.9 km/h 1.9 km/h 75% 0 mm WeatherDisplay:10.37 W/m2 SCT
15:19 17.6 °C 13.1 °C 1020.2 hPa Calm   1.6 km/h 75% 0 mm WeatherDisplay:10.37 W/m2
15:24 17.6 °C 13.3 °C 1020.2 hPa Calm     76% 0 mm WeatherDisplay:10.37 W/m2
15:26 17.6 °C 13.3 °C 1020.2 hPa ESE 1.9 km/h   76% 0 mm WeatherDisplay:10.37 W/m2 SCT
15:29 17.6 °C 13.1 °C 1020.2 hPa Calm     75% 0 mm WeatherDisplay:10.37 W/m2
15:34 17.7 °C 13.4 °C 1020.2 hPa Calm     76% 0 mm WeatherDisplay:10.37 W/m2
15:39 17.7 °C 13 °C 1020.2 hPa ESE 1.6 km/h 1.6 km/h 74% 0 mm WeatherDisplay:10.37 W/m2
15:41 17.7 °C 13.2 °C 1020.2 hPa ESE 1.9 km/h   75% 0 mm WeatherDisplay:10.37 W/m2 SCT
15:44 17.6 °C 13.1 °C 1020.2 hPa Calm   1.6 km/h 75% 0 mm WeatherDisplay:10.37 W/m2
15:46 17.6 °C 13.1 °C 1020.2 hPa ESE 1.9 km/h 1.9 km/h 75% 0 mm WeatherDisplay:10.37 W/m2 SCT
15:49 17.6 °C 13.1 °C 1020.2 hPa Calm   1.6 km/h 75% 0 mm WeatherDisplay:10.37 W/m2
15:51 17.6 °C 13.1 °C 1020.2 hPa ESE 1.9 km/h   75% 0 mm WeatherDisplay:10.37 W/m2 SCT
15:54 17.6 °C 13.1 °C 1020.2 hPa Calm     75% 0 mm WeatherDisplay:10.37 W/m2
15:59 17.5 °C 13 °C 1020.2 hPa Calm   1.6 km/h 75% 0 mm WeatherDisplay:10.37 W/m2
16:04 17.5 °C 13 °C 1020.5 hPa Calm     75% 0 mm WeatherDisplay:10.37 W/m2
16:06 17.5 °C 13 °C 1020.5 hPa ESE 1.9 km/h   75% 0 mm WeatherDisplay:10.37 W/m2 SCT
16:09 17.5 °C 13 °C 1020.2 hPa Calm   1.6 km/h 75% 0 mm WeatherDisplay:10.37 W/m2
16:12 17.5 °C 13 °C 1020.5 hPa SSE 1.9 km/h   75% 0 mm WeatherDisplay:10.37 W/m2 SCT
16:14 17.5 °C 13 °C 1020.2 hPa Calm   1.6 km/h 75% 0 mm WeatherDisplay:10.37 W/m2
16:17 17.5 °C 13 °C 1020.2 hPa SW 3.7 km/h 3.7 km/h 75% 0 mm WeatherDisplay:10.37 W/m2 SCT
16:19 17.4 °C 13.2 °C 1020.2 hPa Calm   3.2 km/h 76% 0 mm WeatherDisplay:10.37 W/m2
16:22 17.3 °C 13.1 °C 1020.2 hPa SW 3.7 km/h   76% 0 mm WeatherDisplay:10.37 W/m2 SCT
16:24 17.3 °C 13.2 °C 1020.2 hPa Calm     77% 0 mm WeatherDisplay:10.37 W/m2
16:27 17.2 °C 13.2 °C 1020.2 hPa SW 3.7 km/h 3.7 km/h 77% 0 mm WeatherDisplay:10.37 W/m2 SCT
16:29 17.1 °C 13.2 °C 1020.2 hPa Calm   1.6 km/h 78% 0 mm WeatherDisplay:10.37 W/m2
16:32 17.1 °C 13.2 °C 1020.5 hPa SW 1.9 km/h   78% 0 mm WeatherDisplay:10.37 W/m2 SCT
16:34 17 °C 13.1 °C 1020.5 hPa Calm     78% 0 mm WeatherDisplay:10.37 W/m2
16:37 16.9 °C 13.1 °C 1020.5 hPa SW 1.9 km/h   78% 0 mm WeatherDisplay:10.37 W/m2 SCT
16:39 16.8 °C 13 °C 1020.5 hPa Calm     78% 0 mm WeatherDisplay:10.37 W/m2
16:42 16.8 °C 13.1 °C 1020.5 hPa Calm     79% 0 mm WeatherDisplay:10.37 W/m2 SCT
16:44 16.7 °C 13.1 °C 1020.5 hPa Calm     79% 0 mm WeatherDisplay:10.37 W/m2
16:49 16.6 °C 12.9 °C 1020.5 hPa Calm   1.6 km/h 79% 0 mm WeatherDisplay:10.37 W/m2
16:52 16.6 °C 12.9 °C 1020.5 hPa Calm     79% 0 mm WeatherDisplay:10.37 W/m2 SCT
16:54 16.5 °C 13.1 °C 1020.5 hPa Calm     80% 0 mm WeatherDisplay:10.37 W/m2
16:57 16.4 °C 13 °C 1020.5 hPa Calm     80% 0 mm WeatherDisplay:10.37 W/m2 SCT
16:59 16.3 °C 12.9 °C 1020.5 hPa Calm   1.6 km/h 80% 0 mm WeatherDisplay:10.37 W/m2
17:02 16.3 °C 12.8 °C 1020.5 hPa SSE 1.9 km/h   80% 0 mm WeatherDisplay:10.37 W/m2 BKN
17:04 16.2 °C 12.8 °C 1020.5 hPa Calm   1.6 km/h 80% 0 mm WeatherDisplay:10.37 W/m2
17:07 16.2 °C 12.7 °C 1020.5 hPa ESE 1.9 km/h   80% 0 mm WeatherDisplay:10.37 W/m2 BKN
17:09 16.1 °C 12.7 °C 1020.5 hPa Calm     80% 0 mm WeatherDisplay:10.37 W/m2
17:14 15.9 °C 12.5 °C 1020.5 hPa Calm     80% 0 mm WeatherDisplay:10.37 W/m2
17:18 15.9 °C 12.4 °C 1020.5 hPa Calm     80% 0 mm WeatherDisplay:10.37 W/m2 BKN
17:19 15.8 °C 12.4 °C 1020.5 hPa Calm     80% 0 mm WeatherDisplay:10.37 W/m2
17:23 15.7 °C 12.3 °C 1020.5 hPa Calm     80% 0 mm WeatherDisplay:10.37 W/m2 BKN
17:24 15.7 °C 12.3 °C 1020.5 hPa Calm     80% 0 mm WeatherDisplay:10.37 W/m2
17:28 15.6 °C 12.3 °C 1020.5 hPa Calm     81% 0 mm WeatherDisplay:10.37 W/m2 BKN
17:29 15.5 °C 12.1 °C 1020.5 hPa Calm     80% 0 mm WeatherDisplay:10.37 W/m2
17:38 15.2 °C 12 °C 1020.5 hPa Calm     81% 0 mm WeatherDisplay:10.37 W/m2 BKN
17:39 15.2 °C 11.7 °C 1020.5 hPa Calm     80% 0 mm WeatherDisplay:10.37 W/m2
17:43 15.1 °C 11.8 °C 1020.5 hPa Calm     81% 0 mm WeatherDisplay:10.37 W/m2 BKN
17:44 15 °C 11.8 °C 1020.5 hPa Calm     81% 0 mm WeatherDisplay:10.37 W/m2
17:48 14.9 °C 11.7 °C 1020.5 hPa Calm     81% 0 mm WeatherDisplay:10.37 W/m2 BKN
17:49 14.9 °C 11.7 °C 1020.5 hPa Calm     81% 0 mm WeatherDisplay:10.37 W/m2
17:53 14.8 °C 11.6 °C 1020.5 hPa Calm     81% 0 mm WeatherDisplay:10.37 W/m2 BKN
17:54 14.7 °C 11.5 °C 1020.5 hPa Calm     81% 0 mm WeatherDisplay:10.37 W/m2
17:58 14.6 °C 11.6 °C 1020.9 hPa Calm     82% 0 mm WeatherDisplay:10.37 W/m2 BKN
17:59 14.6 °C 11.5 °C 1020.5 hPa Calm     82% 0 mm WeatherDisplay:10.37 W/m2
18:08 14.3 °C 11.5 °C 1020.9 hPa Calm     83% 0 mm WeatherDisplay:10.37 W/m2 BKN
18:09 14.3 °C 11.5 °C 1020.9 hPa Calm     83% 0 mm WeatherDisplay:10.37 W/m2
18:18 14.1 °C 11.3 °C 1020.9 hPa Calm     83% 0 mm WeatherDisplay:10.37 W/m2 BKN
18:19 14.1 °C 11.3 °C 1020.9 hPa Calm     83% 0 mm WeatherDisplay:10.37 W/m2
18:23 13.9 °C 11.1 °C 1020.9 hPa Calm     83% 0 mm WeatherDisplay:10.37 W/m2 BKN
18:29 13.7 °C 11.1 °C 1020.9 hPa Calm     84% 0 mm WeatherDisplay:10.37 W/m2 BKN
18:34 13.6 °C 11.1 °C 1020.9 hPa Calm     85% 0 mm WeatherDisplay:10.37 W/m2 BKN
18:39 13.6 °C 11.3 °C 1021.2 hPa Calm     86% 0 mm WeatherDisplay:10.37 W/m2 BKN
18:44 13.6 °C 11.3 °C 1021.2 hPa Calm     86% 0 mm WeatherDisplay:10.37 W/m2 BKN
18:49 13.5 °C 11.2 °C 1021.2 hPa Calm     86% 0 mm WeatherDisplay:10.37 W/m2 BKN
18:54 13.4 °C 11.1 °C 1021.2 hPa Calm     86% 0 mm WeatherDisplay:10.37 W/m2 BKN
18:59 13.2 °C 10.9 °C 1021.2 hPa Calm     86% 0 mm WeatherDisplay:10.37 W/m2 BKN
19:04 13.1 °C 11 °C 1021.2 hPa Calm     87% 0 mm WeatherDisplay:10.37 W/m2 BKN
19:09 13 °C 11.1 °C 1021.2 hPa Calm     88% 0 mm WeatherDisplay:10.37 W/m2 BKN
19:19 12.7 °C 10.8 °C 1021.2 hPa Calm     88% 0 mm WeatherDisplay:10.37 W/m2
19:24 12.6 °C 10.7 °C 1021.2 hPa Calm     88% 0 mm WeatherDisplay:10.37 W/m2 BKN
19:29 12.5 °C 10.7 °C 1021.6 hPa Calm     89% 0 mm WeatherDisplay:10.37 W/m2
19:34 12.4 °C 10.6 °C 1021.6 hPa Calm     89% 0 mm WeatherDisplay:10.37 W/m2 BKN
19:39 12.3 °C 10.5 °C 1021.6 hPa Calm     89% 0 mm WeatherDisplay:10.37 W/m2
19:40 12.3 °C 10.6 °C 1021.6 hPa Calm     89% 0 mm WeatherDisplay:10.37 W/m2 BKN
19:44 12.2 °C 10.4 °C 1021.6 hPa Calm     89% 0 mm WeatherDisplay:10.37 W/m2
19:49 12.1 °C 10.4 °C 1021.6 hPa Calm     90% 0 mm WeatherDisplay:10.37 W/m2
19:54 12 °C 10.4 °C 1021.6 hPa Calm     90% 0 mm WeatherDisplay:10.37 W/m2
19:55 12 °C 10.4 °C 1021.6 hPa Calm     90% 0 mm WeatherDisplay:10.37 W/m2 BKN
19:59 11.9 °C 10.3 °C 1021.6 hPa Calm     90% 0 mm WeatherDisplay:10.37 W/m2
20:00 11.9 °C 10.3 °C 1021.6 hPa Calm     90% 0 mm WeatherDisplay:10.37 W/m2 BKN
20:09 11.8 °C 10.2 °C 1021.6 hPa Calm     90% 0 mm WeatherDisplay:10.37 W/m2
20:14 11.6 °C 10 °C 1021.6 hPa Calm     90% 0 mm WeatherDisplay:10.37 W/m2
20:19 11.5 °C 9.9 °C 1021.6 hPa Calm     90% 0 mm WeatherDisplay:10.37 W/m2
20:24 11.4 °C 10 °C 1021.9 hPa Calm     91% 0 mm WeatherDisplay:10.37 W/m2
20:25 11.4 °C 10 °C 1021.6 hPa Calm     91% 0 mm WeatherDisplay:10.37 W/m2 BKN
20:29 11.4 °C 9.9 °C 1021.9 hPa Calm     91% 0 mm WeatherDisplay:10.37 W/m2
20:30 11.3 °C 9.9 °C 1021.6 hPa Calm     91% 0 mm WeatherDisplay:10.37 W/m2 BKN
20:39 11.3 °C 9.9 °C 1021.9 hPa Calm     91% 0 mm WeatherDisplay:10.37 W/m2
20:46 11.3 °C 9.9 °C 1021.9 hPa Calm     91% 0 mm WeatherDisplay:10.37 W/m2 BKN
20:49 11.3 °C 10.1 °C 1021.9 hPa Calm     92% 0 mm WeatherDisplay:10.37 W/m2
20:54 11.3 °C 10.1 °C 1021.9 hPa Calm     92% 0 mm WeatherDisplay:10.37 W/m2
20:56 11.3 °C 10.1 °C 1021.9 hPa Calm     92% 0 mm WeatherDisplay:10.37 W/m2 BKN
20:59 11.2 °C 9.8 °C 1021.9 hPa Calm     91% 0 mm WeatherDisplay:10.37 W/m2
21:01 11.2 °C 9.8 °C 1021.9 hPa Calm     91% 0 mm WeatherDisplay:10.37 W/m2 BKN
21:04 11.2 °C 9.9 °C 1021.9 hPa Calm     92% 0 mm WeatherDisplay:10.37 W/m2
21:06 11.2 °C 9.8 °C 1021.9 hPa Calm     91% 0 mm WeatherDisplay:10.37 W/m2 SCT
21:09 11.1 °C 9.7 °C 1021.9 hPa Calm     91% 0 mm WeatherDisplay:10.37 W/m2
21:14 11 °C 9.7 °C 1021.6 hPa Calm     92% 0 mm WeatherDisplay:10.37 W/m2
21:16 11 °C 9.7 °C 1021.6 hPa Calm     92% 0 mm WeatherDisplay:10.37 W/m2 SCT
21:19 10.9 °C 9.7 °C 1021.6 hPa Calm     92% 0 mm WeatherDisplay:10.37 W/m2
21:21 10.9 °C 9.7 °C 1021.6 hPa Calm     92% 0 mm WeatherDisplay:10.37 W/m2 SCT
21:29 10.8 °C 9.6 °C 1021.6 hPa Calm     92% 0 mm WeatherDisplay:10.37 W/m2
21:34 10.8 °C 9.6 °C 1021.9 hPa Calm     92% 0 mm WeatherDisplay:10.37 W/m2
21:36 10.8 °C 9.6 °C 1021.9 hPa Calm     92% 0 mm WeatherDisplay:10.37 W/m2 SCT
21:39 10.8 °C 9.6 °C 1021.9 hPa Calm     92% 0 mm WeatherDisplay:10.37 W/m2
21:41 10.8 °C 9.6 °C 1021.9 hPa Calm     92% 0 mm WeatherDisplay:10.37 W/m2 SCT
21:44 10.8 °C 9.6 °C 1021.9 hPa Calm     92% 0 mm WeatherDisplay:10.37 W/m2
21:49 10.8 °C 9.6 °C 1021.6 hPa Calm     92% 0 mm WeatherDisplay:10.37 W/m2
21:51 10.8 °C 9.6 °C 1021.6 hPa Calm     92% 0 mm WeatherDisplay:10.37 W/m2 SCT
21:54 10.7 °C 9.5 °C 1021.9 hPa Calm     92% 0 mm WeatherDisplay:10.37 W/m2
21:59 10.7 °C 9.4 °C 1021.9 hPa Calm     92% 0 mm WeatherDisplay:10.37 W/m2
22:02 10.7 °C 9.4 °C 1021.9 hPa Calm     92% 0 mm WeatherDisplay:10.37 W/m2 SCT
22:04 10.6 °C 9.3 °C 1021.9 hPa Calm     92% 0 mm WeatherDisplay:10.37 W/m2
22:07 10.6 °C 9.3 °C 1021.9 hPa Calm     92% 0 mm WeatherDisplay:10.37 W/m2 SCT
22:09 10.6 °C 9.4 °C 1021.9 hPa Calm     92% 0 mm WeatherDisplay:10.37 W/m2
22:13 10.6 °C 9.5 °C 1021.9 hPa Calm     93% 0 mm WeatherDisplay:10.37 W/m2 FEW
22:14 10.6 °C 9.5 °C 1021.9 hPa Calm     93% 0 mm WeatherDisplay:10.37 W/m2
22:19 10.6 °C 9.3 °C 1021.9 hPa Calm     92% 0 mm WeatherDisplay:10.37 W/m2
22:22 10.6 °C 9.3 °C 1021.9 hPa Calm     92% 0 mm WeatherDisplay:10.37 W/m2 FEW
22:24 10.6 °C 9.4 °C 1021.9 hPa Calm     93% 0 mm WeatherDisplay:10.37 W/m2
22:27 10.6 °C 9.5 °C 1021.9 hPa Calm     93% 0 mm WeatherDisplay:10.37 W/m2 FEW
22:29 10.7 °C 9.6 °C 1021.9 hPa Calm     93% 0 mm WeatherDisplay:10.37 W/m2
22:38 10.7 °C 9.6 °C 1021.9 hPa Calm     93% 0 mm WeatherDisplay:10.37 W/m2 FEW
22:39 10.6 °C 9.5 °C 1021.9 hPa Calm     93% 0 mm WeatherDisplay:10.37 W/m2
22:42 10.6 °C 9.4 °C 1021.9 hPa Calm     93% 0 mm WeatherDisplay:10.37 W/m2 FEW
22:44 10.5 °C 9.4 °C 1021.9 hPa Calm     93% 0 mm WeatherDisplay:10.37 W/m2
22:49 10.4 °C 9.2 °C 1021.9 hPa Calm     92% 0 mm WeatherDisplay:10.37 W/m2 FEW
22:54 10.4 °C 9.3 °C 1021.9 hPa Calm     93% 0 mm WeatherDisplay:10.37 W/m2
22:57 10.4 °C 9.3 °C 1021.9 hPa Calm     93% 0 mm WeatherDisplay:10.37 W/m2 FEW
22:59 10.4 °C 9.3 °C 1021.9 hPa Calm     93% 0 mm WeatherDisplay:10.37 W/m2
23:02 10.4 °C 9.3 °C 1021.9 hPa Calm     93% 0 mm WeatherDisplay:10.37 W/m2 FEW
23:04 10.4 °C 9.3 °C 1021.9 hPa Calm     93% 0 mm WeatherDisplay:10.37 W/m2
23:07 10.3 °C 9.3 °C 1021.9 hPa Calm     93% 0 mm WeatherDisplay:10.37 W/m2 FEW
23:09 10.3 °C 9.2 °C 1021.9 hPa Calm     93% 0 mm WeatherDisplay:10.37 W/m2
23:12 10.2 °C 9.2 °C 1021.9 hPa Calm     93% 0 mm WeatherDisplay:10.37 W/m2 FEW
23:14 10.2 °C 9.1 °C 1021.9 hPa Calm     93% 0 mm WeatherDisplay:10.37 W/m2
23:17 10.1 °C 9.1 °C 1021.9 hPa Calm     93% 0 mm WeatherDisplay:10.37 W/m2 FEW
23:19 10.1 °C 9 °C 1021.9 hPa Calm     93% 0 mm WeatherDisplay:10.37 W/m2
23:22 10 °C 8.9 °C 1021.9 hPa Calm     93% 0 mm WeatherDisplay:10.37 W/m2 FEW
23:27 9.9 °C 8.9 °C 1021.9 hPa Calm     93% 0 mm WeatherDisplay:10.37 W/m2 FEW
23:29 9.9 °C 8.9 °C 1022.2 hPa Calm     93% 0 mm WeatherDisplay:10.37 W/m2
23:32 9.9 °C 8.8 °C 1022.2 hPa Calm     93% 0 mm WeatherDisplay:10.37 W/m2 FEW
23:37 9.8 °C 8.8 °C 1022.2 hPa Calm     93% 0 mm WeatherDisplay:10.37 W/m2 FEW
23:39 9.8 °C 8.7 °C 1022.2 hPa Calm     93% 0 mm WeatherDisplay:10.37 W/m2
23:42 9.7 °C 8.7 °C 1022.2 hPa Calm     93% 0 mm WeatherDisplay:10.37 W/m2 FEW
23:44 9.7 °C 8.6 °C 1022.2 hPa Calm     93% 0 mm WeatherDisplay:10.37 W/m2
23:48 9.7 °C 8.6 °C 1022.2 hPa Calm     93% 0 mm WeatherDisplay:10.37 W/m2 FEW
23:49 9.6 °C 8.6 °C 1022.2 hPa Calm     93% 0 mm WeatherDisplay:10.37 W/m2
23:54 9.6 °C 8.6 °C 1022.2 hPa Calm     93% 0 mm WeatherDisplay:10.37 W/m2
23:58 9.6 °C 8.5 °C 1021.9 hPa Calm     93% 0 mm WeatherDisplay:10.37 W/m2 FEW
23:59 9.6 °C 8.5 °C 1021.9 hPa Calm     93% 0 mm WeatherDisplay:10.37 W/m2
Piedmont Bend
Compliments of Weather Underground - 4 mb